Anderson, WV

2:12 AM EDT on March 29, 2017 (GMT -0400)
MKGWW2 | | Change Station

Elev 1738 ft 39.41 °N, 79.70 °W | Updated 1 hour ago

Overcast
Overcast
49.0 °F
Feels Like 46 °F
N
6.0
Wind Variable Wind from NW
Gusts 11.0 mph

Today
High -- | Low -- °F
--% Chance of Precip.
Yesterday
High -- | Low -- °F
Precip. -- in
Pressure 30.11 in
Visibility 10.0 miles
Clouds Overcast 1700 ft
Windchill 46 °F
Dew Point 47.0 °F
Humidity 93%
Rainfall in
Snow Depth Not available.
7:07 AM 7:40 PM
New Moon, 2% visible
METAR KMGW 290553Z AUTO 35008KT 10SM OVC017 09/06 A3011 RMK AO2 SLP196 T00940056 10139 20094 51012 TSNO
Pressure 30.11 in
Visibility 10.0 miles
Clouds Overcast 1700 ft
Windchill 46 °F
Dew Point 47.0 °F
Humidity 93%
Rainfall in
Snow Depth Not available.
7:07 AM 7:40 PM
New Moon, 2% visible
METAR KMGW 290553Z AUTO 35008KT 10SM OVC017 09/06 A3011 RMK AO2 SLP196 T00940056 10139 20094 51012 TSNO

Get Severe Weather Alerts

Thanks for signing up!

Be on the lookout for a verification email in your inbox.

You'll start receiving the daily forecast at 8 AM.

×

10-Day Weather Forecast

Almanac

Astronomy

Mar. 29, 2017 Rise Set
Actual Time
Civil Twilight
Nautical Twilight
Astronomical Twilight
Moon
Length of Visible Light
Length of Day
Tomorrow will be .
, % of the Moon is Illuminated

Today's Extremes

State Highs State Lows

Community

WunderPhotos

Upload Photos

1,962,540 photos uploaded!

WunderBlog® & News

Nearby

Air Quality

  Air Quality AQ Index Pollutant
Not available.

Snow Depth

Station Depth Elevation

Earthquake Activity

City Distance Mag. Time & Date
Minimum magnitude displayed is 2.5.

Earthquake Activity

City Distance Mag. Time & Date
Minimum magnitude displayed is 2.5.

Coastal Water Temperatures

Place Temperature

Stations

Nearby Weather Stations

Station Location Temp. Windchill Dew Point Humidity Wind Precip. Elev Updated Type
                   

Watches & Warnings

There are currently no watches in effect.